createdAt,value
2022-10-05T00:00:13.994Z,152.98
2022-10-05T00:02:40.775Z,143.50
2022-10-05T00:05:26.917Z,141.77
2022-10-05T00:07:56.640Z,143.70
2022-10-05T00:10:24.027Z,143.18
2022-10-05T00:12:50.913Z,140.48
2022-10-05T00:15:21.340Z,144.93
2022-10-05T00:17:48.576Z,143.13
2022-10-05T00:20:24.646Z,140.02
2022-10-05T00:22:57.465Z,142.10
2022-10-05T00:25:24.729Z,143.57
2022-10-05T00:27:58.405Z,139.15
2022-10-05T00:30:30.972Z,141.18
2022-10-05T00:32:59.814Z,140.02
2022-10-05T00:35:29.361Z,135.35
2022-10-05T00:37:56.545Z,135.57
2022-10-05T00:40:35.355Z,143.02
2022-10-05T00:43:29.100Z,136.98
2022-10-05T00:46:10.212Z,144.23
2022-10-05T00:48:52.504Z,133.90
2022-10-05T00:51:31.431Z,136.05
2022-10-05T00:54:00.951Z,131.48
2022-10-05T00:57:01.399Z,133.68
2022-10-05T00:59:40.454Z,140.93
2022-10-05T01:02:20.060Z,138.63
2022-10-05T01:05:03.782Z,140.77
2022-10-05T01:07:58.777Z,146.13
2022-10-05T01:10:43.601Z,139.43
2022-10-05T01:13:30.228Z,140.53
2022-10-05T01:16:07.151Z,130.95
2022-10-05T01:18:39.742Z,131.32
2022-10-05T01:21:17.494Z,130.68
2022-10-05T01:24:02.679Z,134.88
2022-10-05T01:26:54.009Z,129.20
2022-10-05T01:29:25.467Z,142.32
2022-10-05T01:32:18.192Z,131.73
2022-10-05T01:35:01.036Z,134.95
2022-10-05T01:37:49.015Z,137.77
2022-10-05T01:40:18.883Z,133.52
2022-10-05T01:43:16.448Z,136.43
2022-10-05T01:45:49.047Z,132.32
2022-10-05T01:48:43.336Z,128.52
2022-10-05T01:51:22.407Z,137.07
2022-10-05T01:54:07.702Z,134.13
2022-10-05T01:56:46.740Z,135.70
2022-10-05T01:59:43.514Z,129.48
2022-10-05T02:02:17.140Z,132.23
2022-10-05T02:05:06.485Z,133.05
2022-10-05T02:07:54.727Z,132.65
2022-10-05T02:10:30.995Z,140.82
2022-10-05T02:15:42.246Z,134.85
2022-10-05T02:18:16.098Z,134.55
2022-10-05T02:20:44.995Z,141.48
2022-10-05T02:23:19.067Z,143.25
2022-10-05T02:25:49.429Z,141.27
2022-10-05T02:28:32.212Z,129.23
2022-10-05T02:31:06.170Z,127.68
2022-10-05T02:33:34.819Z,140.25
2022-10-05T02:36:19.880Z,134.48
2022-10-05T02:38:54.662Z,136.52
2022-10-05T02:41:26.890Z,131.00
2022-10-05T02:43:59.444Z,132.27
2022-10-05T02:46:44.044Z,145.82
2022-10-05T02:49:43.310Z,139.00
2022-10-05T02:52:46.263Z,134.77
2022-10-05T02:55:19.996Z,141.57
2022-10-05T02:57:54.305Z,133.57
2022-10-05T03:00:26.039Z,130.85
2022-10-05T03:03:18.999Z,128.73
2022-10-05T03:06:05.235Z,139.25
2022-10-05T03:08:53.710Z,138.18
2022-10-05T03:11:34.535Z,145.35
2022-10-05T03:14:04.483Z,140.88
2022-10-05T03:16:41.820Z,138.50
2022-10-05T03:19:10.269Z,144.88
2022-10-05T03:22:00.125Z,138.43
2022-10-05T03:24:50.461Z,132.73
2022-10-05T03:27:43.874Z,132.45
2022-10-05T03:30:17.539Z,127.95
2022-10-05T03:33:03.633Z,133.50
2022-10-05T03:35:53.055Z,140.43
2022-10-05T03:38:41.816Z,139.23
2022-10-05T03:41:23.952Z,141.40
2022-10-05T03:43:53.498Z,127.55
2022-10-05T03:46:29.374Z,142.85
2022-10-05T03:49:22.202Z,133.38
2022-10-05T03:51:59.330Z,134.02
2022-10-05T03:54:32.289Z,133.23
2022-10-05T03:57:26.228Z,136.07
2022-10-05T04:00:05.544Z,127.07
2022-10-05T04:02:55.885Z,129.52
2022-10-05T04:05:29.330Z,139.00
2022-10-05T04:08:38.572Z,135.52
2022-10-05T04:11:16.083Z,125.05
2022-10-05T04:13:50.288Z,132.68
2022-10-05T04:16:25.785Z,137.18
2022-10-05T04:19:05.913Z,131.32
2022-10-05T04:21:41.391Z,141.60
2022-10-05T04:24:17.901Z,129.65
2022-10-05T04:26:54.266Z,127.72
2022-10-05T04:29:28.130Z,139.30
2022-10-05T04:31:58.832Z,137.85
2022-10-05T04:34:36.359Z,129.77
2022-10-05T04:37:08.230Z,138.70
2022-10-05T04:39:44.357Z,129.40
2022-10-05T04:42:36.412Z,133.18
2022-10-05T04:45:22.269Z,141.18
2022-10-05T04:47:57.852Z,134.82
2022-10-05T04:50:45.442Z,127.20
2022-10-05T04:53:29.145Z,138.68
2022-10-05T04:56:02.585Z,129.07
2022-10-05T04:58:49.529Z,127.55
2022-10-05T05:01:22.457Z,136.13
2022-10-05T05:04:27.133Z,128.93
2022-10-05T05:07:14.509Z,127.63
2022-10-05T05:10:18.621Z,129.75
2022-10-05T05:13:15.222Z,140.27
2022-10-05T05:16:10.909Z,135.18
2022-10-05T05:18:53.438Z,127.55
2022-10-05T05:21:48.567Z,126.65
2022-10-05T05:24:34.544Z,125.30
2022-10-05T05:27:28.468Z,130.40
2022-10-05T05:30:18.568Z,129.45
2022-10-05T05:33:08.697Z,138.10
2022-10-05T05:35:59.014Z,125.93
2022-10-05T05:38:59.396Z,135.38
2022-10-05T05:41:35.270Z,121.70
2022-10-05T05:44:23.675Z,134.10
2022-10-05T05:47:09.426Z,140.77
2022-10-05T05:49:55.026Z,136.73
2022-10-05T05:52:28.695Z,129.88
2022-10-05T05:55:06.886Z,126.90
2022-10-05T05:57:53.625Z,128.43
2022-10-05T06:00:48.443Z,129.90
2022-10-05T06:03:37.799Z,121.82
2022-10-05T06:06:09.886Z,141.07
2022-10-05T06:09:00.735Z,139.23
2022-10-05T06:11:52.247Z,127.47
2022-10-05T06:16:59.047Z,130.80
2022-10-05T06:19:28.059Z,146.20
2022-10-05T06:22:19.259Z,130.88
2022-10-05T06:25:07.882Z,131.65
2022-10-05T06:27:59.403Z,133.13
2022-10-05T06:30:43.653Z,142.13
2022-10-05T06:33:48.867Z,130.27
2022-10-05T06:36:23.403Z,136.07
2022-10-05T06:39:14.348Z,135.57
2022-10-05T06:42:03.531Z,136.00
2022-10-05T06:44:58.063Z,141.68
2022-10-05T06:47:44.874Z,143.73
2022-10-05T06:50:42.678Z,141.00
2022-10-05T06:53:42.545Z,140.13
2022-10-05T06:56:21.038Z,139.27
2022-10-05T06:59:12.531Z,147.95
2022-10-05T07:01:59.313Z,149.20
2022-10-05T07:04:36.718Z,141.45
2022-10-05T07:07:10.363Z,142.30
2022-10-05T07:09:41.412Z,142.20
2022-10-05T07:12:18.534Z,147.73
2022-10-05T07:15:20.716Z,139.65
2022-10-05T07:18:00.134Z,150.90
2022-10-05T07:20:39.798Z,142.90
2022-10-05T07:23:47.104Z,145.60
2022-10-05T07:26:22.793Z,142.52
2022-10-05T07:29:14.254Z,143.35
2022-10-05T07:31:47.115Z,147.55
2022-10-05T07:34:43.971Z,144.60
2022-10-05T07:37:38.837Z,145.73
2022-10-05T07:40:37.827Z,144.45
2022-10-05T07:43:16.192Z,139.70
2022-10-05T07:46:07.277Z,149.00
2022-10-05T07:48:37.114Z,150.85
2022-10-05T07:51:22.712Z,156.48
2022-10-05T07:54:16.226Z,164.57
2022-10-05T07:56:49.413Z,157.70
2022-10-05T08:00:02.361Z,161.48
2022-10-05T08:03:11.049Z,160.82
2022-10-05T08:05:42.513Z,155.95
2022-10-05T08:08:21.213Z,160.57
2022-10-05T08:10:56.800Z,164.07
2022-10-05T08:13:55.666Z,162.80
2022-10-05T08:16:26.537Z,156.65
2022-10-05T08:19:06.774Z,158.75
2022-10-05T08:21:41.521Z,166.60
2022-10-05T08:24:46.585Z,159.68
2022-10-05T08:27:23.567Z,171.13
2022-10-05T08:30:10.348Z,175.80
2022-10-05T08:32:50.387Z,171.90
2022-10-05T08:35:49.175Z,167.60
2022-10-05T08:38:19.913Z,174.30
2022-10-05T08:41:10.737Z,168.38
2022-10-05T08:43:55.679Z,172.02
2022-10-05T08:47:03.649Z,167.73
2022-10-05T08:49:51.596Z,171.82
2022-10-05T08:52:30.190Z,164.10
2022-10-05T08:55:25.132Z,167.38
2022-10-05T08:58:09.807Z,170.80
2022-10-05T09:00:36.324Z,173.07
2022-10-05T09:03:26.196Z,162.07
2022-10-05T09:06:04.830Z,176.30
2022-10-05T09:08:51.298Z,170.93
2022-10-05T09:14:10.261Z,168.93
2022-10-05T09:17:09.224Z,160.15
2022-10-05T09:19:54.611Z,172.82
2022-10-05T09:23:18.284Z,170.70
2022-10-05T09:25:59.247Z,161.73
2022-10-05T09:28:31.915Z,165.27
2022-10-05T09:31:19.285Z,162.60
2022-10-05T09:34:16.662Z,162.43
2022-10-05T09:37:25.088Z,172.70
2022-10-05T09:40:19.764Z,162.65
2022-10-05T09:43:08.654Z,167.77
2022-10-05T09:46:07.655Z,158.93
2022-10-05T09:48:43.406Z,161.13
2022-10-05T09:51:13.040Z,167.68
2022-10-05T09:54:01.553Z,165.85
2022-10-05T09:57:04.198Z,162.23
2022-10-05T09:59:58.421Z,159.32
2022-10-05T10:03:00.426Z,167.60
2022-10-05T10:05:51.625Z,157.18
2022-10-05T10:08:38.506Z,161.15
2022-10-05T10:11:29.566Z,159.27
2022-10-05T10:14:13.419Z,161.07
2022-10-05T10:17:29.535Z,156.43
2022-10-05T10:20:05.264Z,156.35
2022-10-05T10:23:16.856Z,160.05
2022-10-05T10:26:04.995Z,167.02
2022-10-05T10:28:48.553Z,158.13
2022-10-05T10:31:51.264Z,158.70
2022-10-05T10:34:45.301Z,157.90
2022-10-05T10:37:35.437Z,156.13
2022-10-05T10:40:02.008Z,158.30
2022-10-05T10:42:50.329Z,166.27
2022-10-05T10:45:58.867Z,162.82
2022-10-05T10:48:28.728Z,158.13
2022-10-05T10:51:19.347Z,151.88
2022-10-05T10:54:04.766Z,158.55
2022-10-05T10:57:04.438Z,164.37
2022-10-05T11:00:00.539Z,163.45
2022-10-05T11:03:11.827Z,158.48
2022-10-05T11:05:56.073Z,162.07
2022-10-05T11:09:08.246Z,156.93
2022-10-05T11:11:45.746Z,159.20
2022-10-05T11:14:31.081Z,157.57
2022-10-05T11:17:19.209Z,159.03
2022-10-05T11:20:04.162Z,160.93
2022-10-05T11:22:52.025Z,159.57
2022-10-05T11:25:37.964Z,158.95
2022-10-05T11:28:35.751Z,157.60
2022-10-05T11:31:11.496Z,158.05
2022-10-05T11:36:34.282Z,163.85
2022-10-05T11:39:28.638Z,158.93
2022-10-05T11:42:16.624Z,155.82
2022-10-05T11:45:06.210Z,162.93
2022-10-05T11:47:41.033Z,157.70
2022-10-05T11:50:35.456Z,161.53
2022-10-05T11:53:12.047Z,161.13
2022-10-05T11:56:11.000Z,157.50
2022-10-05T11:59:12.299Z,152.93
2022-10-05T12:01:50.357Z,164.25
2022-10-05T12:04:20.670Z,153.15
2022-10-05T12:07:13.862Z,156.13
2022-10-05T12:10:17.150Z,159.23
2022-10-05T12:12:47.494Z,156.88
2022-10-05T12:15:45.318Z,160.45
2022-10-05T12:18:18.425Z,162.27
2022-10-05T12:21:02.414Z,153.45
2022-10-05T12:23:37.306Z,159.77
2022-10-05T12:26:11.129Z,156.37
2022-10-05T12:28:52.160Z,157.63
2022-10-05T12:31:29.660Z,162.10
2022-10-05T12:34:12.636Z,156.23
2022-10-05T12:37:09.522Z,165.73
2022-10-05T12:39:56.550Z,156.20
2022-10-05T12:42:39.413Z,153.15
2022-10-05T12:46:02.349Z,163.68
2022-10-05T12:48:56.289Z,157.82
2022-10-05T12:51:34.700Z,156.23
2022-10-05T12:54:09.968Z,152.65
2022-10-05T12:57:07.241Z,163.43
2022-10-05T12:59:55.215Z,161.63
2022-10-05T13:02:39.061Z,158.15
2022-10-05T13:05:16.205Z,151.48
2022-10-05T13:07:52.077Z,157.85
2022-10-05T13:10:24.737Z,154.77
2022-10-05T13:13:16.153Z,154.82
2022-10-05T13:16:24.307Z,150.05
2022-10-05T13:19:11.263Z,151.43
2022-10-05T13:21:47.620Z,162.23
2022-10-05T13:24:38.216Z,159.55
2022-10-05T13:27:27.712Z,163.85
2022-10-05T13:29:57.458Z,163.73
2022-10-05T13:32:44.385Z,154.10
2022-10-05T13:35:42.283Z,151.02
2022-10-05T13:38:27.596Z,160.70
2022-10-05T13:41:30.007Z,165.20
2022-10-05T13:43:59.599Z,156.63
2022-10-05T13:46:46.612Z,163.98
2022-10-05T13:49:49.303Z,166.27
2022-10-05T13:52:43.772Z,156.85
2022-10-05T13:55:31.972Z,163.23
2022-10-05T13:58:27.751Z,158.00
2022-10-05T14:00:57.838Z,160.83
2022-10-05T14:03:34.885Z,159.88
2022-10-05T14:06:13.536Z,166.05
2022-10-05T14:08:52.801Z,165.93
2022-10-05T14:11:31.493Z,162.55
2022-10-05T14:14:26.524Z,158.98
2022-10-05T14:16:56.529Z,163.40
2022-10-05T14:19:23.608Z,157.32
2022-10-05T14:22:11.891Z,156.38
2022-10-05T14:24:52.467Z,156.00
2022-10-05T14:27:26.470Z,156.13
2022-10-05T14:29:57.948Z,162.77
2022-10-05T14:32:27.112Z,152.45
2022-10-05T14:35:05.140Z,163.18
2022-10-05T14:37:43.354Z,160.98
2022-10-05T14:40:25.218Z,165.27
2022-10-05T14:42:51.883Z,155.90
2022-10-05T14:45:25.135Z,154.55
2022-10-05T14:48:02.404Z,164.60
2022-10-05T14:50:31.555Z,160.50
2022-10-05T14:53:17.925Z,156.07
2022-10-05T14:55:50.452Z,161.07
2022-10-05T14:58:23.897Z,155.30
2022-10-05T15:01:01.086Z,153.50
2022-10-05T15:03:42.356Z,152.40
2022-10-05T15:06:21.138Z,159.75
2022-10-05T15:09:34.612Z,164.85
2022-10-05T15:12:03.218Z,161.98
2022-10-05T15:14:33.899Z,164.35
2022-10-05T15:17:13.552Z,158.80
2022-10-05T15:20:05.161Z,158.23
2022-10-05T15:22:50.242Z,163.88
2022-10-05T15:25:16.907Z,166.52
2022-10-05T15:28:03.965Z,166.18
2022-10-05T15:30:35.178Z,154.15
2022-10-05T15:33:09.002Z,160.80
2022-10-05T15:36:04.366Z,154.85
2022-10-05T15:38:42.841Z,160.52
2022-10-05T15:41:24.666Z,162.63
2022-10-05T15:44:10.892Z,157.60
2022-10-05T15:49:37.059Z,161.75
2022-10-05T15:52:32.184Z,162.02
2022-10-05T15:55:10.212Z,161.82
2022-10-05T15:57:55.583Z,165.18
2022-10-05T16:00:25.285Z,163.13
2022-10-05T16:03:02.726Z,171.05
2022-10-05T16:06:06.325Z,165.02
2022-10-05T16:08:51.264Z,163.02
2022-10-05T16:11:46.403Z,163.70
2022-10-05T16:14:35.405Z,161.05
2022-10-05T16:17:08.450Z,164.65
2022-10-05T16:19:53.358Z,160.45
2022-10-05T16:22:26.631Z,165.40
2022-10-05T16:25:05.007Z,163.82
2022-10-05T16:28:04.381Z,171.52
2022-10-05T16:30:44.440Z,166.20
2022-10-05T16:33:54.616Z,166.02
2022-10-05T16:36:55.288Z,164.30
2022-10-05T16:39:40.239Z,161.55
2022-10-05T16:42:12.950Z,163.38
2022-10-05T16:44:56.848Z,162.07
2022-10-05T16:47:58.294Z,168.98
2022-10-05T16:50:51.120Z,168.90
2022-10-05T16:53:25.179Z,170.52
2022-10-05T16:56:01.213Z,164.27
2022-10-05T16:58:46.645Z,166.65
2022-10-05T17:01:22.937Z,171.65
2022-10-05T17:04:12.219Z,163.52
2022-10-05T17:07:23.408Z,164.63
2022-10-05T17:10:11.382Z,160.35
2022-10-05T17:13:02.910Z,158.23
2022-10-05T17:15:48.982Z,159.85
2022-10-05T17:18:49.307Z,165.43
2022-10-05T17:21:25.738Z,166.68
2022-10-05T17:24:12.432Z,170.20
2022-10-05T17:26:54.836Z,161.43
2022-10-05T17:29:53.673Z,163.80
2022-10-05T17:32:23.018Z,165.85
2022-10-05T17:35:01.583Z,170.30
2022-10-05T17:37:28.086Z,171.27
2022-10-05T17:39:56.482Z,167.50
2022-10-05T17:42:29.416Z,160.93
2022-10-05T17:45:14.697Z,168.05
2022-10-05T17:48:11.132Z,164.57
2022-10-05T17:51:02.508Z,162.50
2022-10-05T17:54:02.801Z,153.10
2022-10-05T17:56:55.742Z,153.35
2022-10-05T17:59:37.794Z,150.98
2022-10-05T18:02:19.839Z,158.25
2022-10-05T18:05:02.706Z,158.73
2022-10-05T18:07:29.995Z,155.38
2022-10-05T18:10:00.901Z,156.07
2022-10-05T18:12:45.421Z,163.25
2022-10-05T18:15:44.764Z,159.30
2022-10-05T18:18:32.699Z,153.20
2022-10-05T18:21:05.221Z,173.02
2022-10-05T18:23:36.165Z,162.13
2022-10-05T18:26:20.478Z,165.85
2022-10-05T18:29:15.847Z,162.05
2022-10-05T18:31:55.310Z,167.65
2022-10-05T18:34:26.500Z,162.38
2022-10-05T18:37:19.257Z,164.80
2022-10-05T18:40:05.984Z,167.90
2022-10-05T18:42:42.108Z,160.73
2022-10-05T18:45:27.722Z,166.05
2022-10-05T18:48:15.067Z,161.73
2022-10-05T18:51:13.831Z,165.30
2022-10-05T18:54:25.931Z,166.15
2022-10-05T18:56:53.177Z,159.00
2022-10-05T18:59:35.066Z,166.45
2022-10-05T19:02:27.221Z,161.40
2022-10-05T19:05:45.821Z,161.68
2022-10-05T19:08:24.865Z,162.13
2022-10-05T19:11:02.538Z,169.52
2022-10-05T19:13:53.966Z,160.32
2022-10-05T19:16:30.391Z,155.93
2022-10-05T19:19:34.454Z,168.63
2022-10-05T19:22:14.711Z,158.65
2022-10-05T19:25:06.198Z,172.18
2022-10-05T19:27:44.871Z,158.02
2022-10-05T19:30:24.115Z,159.32
2022-10-05T19:32:56.820Z,157.95
2022-10-05T19:35:33.725Z,161.27
2022-10-05T19:38:20.330Z,158.57
2022-10-05T19:41:16.208Z,159.68
2022-10-05T19:44:16.193Z,164.60
2022-10-05T19:47:09.433Z,162.43
2022-10-05T19:49:37.360Z,166.32
2022-10-05T19:52:11.029Z,163.38
2022-10-05T19:54:37.716Z,170.35
2022-10-05T19:57:17.105Z,158.73
2022-10-05T19:59:48.360Z,162.75
2022-10-05T20:02:17.159Z,168.00
2022-10-05T20:04:49.497Z,163.13
2022-10-05T20:07:21.788Z,162.35
2022-10-05T20:09:53.102Z,169.75
2022-10-05T20:12:23.019Z,166.45
2022-10-05T20:15:27.859Z,169.07
2022-10-05T20:18:13.127Z,160.88
2022-10-05T20:20:47.067Z,159.20
2022-10-05T20:23:21.598Z,167.98
2022-10-05T20:26:08.331Z,162.45
2022-10-05T20:28:35.061Z,153.55
2022-10-05T20:31:01.826Z,163.75
2022-10-05T20:33:29.294Z,165.98
2022-10-05T20:35:56.196Z,158.23
2022-10-05T20:38:22.979Z,162.48
2022-10-05T20:40:49.745Z,156.52
2022-10-05T20:43:16.641Z,157.52
2022-10-05T20:45:43.756Z,166.32
2022-10-05T20:48:11.564Z,160.35
2022-10-05T20:50:38.862Z,159.90
2022-10-05T20:53:10.973Z,155.93
2022-10-05T20:55:38.442Z,156.00
2022-10-05T20:58:05.109Z,153.60
2022-10-05T21:00:51.673Z,169.05
2022-10-05T21:05:46.657Z,162.30
2022-10-05T21:08:14.059Z,169.38
2022-10-05T21:10:40.788Z,155.07
2022-10-05T21:13:07.418Z,160.25
2022-10-05T21:15:34.133Z,152.18
2022-10-05T21:18:00.715Z,156.57
2022-10-05T21:20:27.375Z,153.20
2022-10-05T21:22:53.951Z,159.23
2022-10-05T21:25:20.527Z,159.68
2022-10-05T21:27:48.650Z,161.80
2022-10-05T21:30:15.500Z,161.38
2022-10-05T21:32:44.636Z,153.05
2022-10-05T21:35:11.545Z,149.38
2022-10-05T21:37:38.271Z,158.35
2022-10-05T21:40:05.284Z,160.40
2022-10-05T21:42:32.072Z,152.85
2022-10-05T21:44:58.700Z,146.70
2022-10-05T21:47:25.974Z,146.18
2022-10-05T21:49:52.855Z,147.63
2022-10-05T21:52:20.343Z,144.05
2022-10-05T21:54:47.072Z,160.10
2022-10-05T21:57:14.703Z,146.80
2022-10-05T21:59:42.985Z,153.93
2022-10-05T22:02:09.607Z,142.75
2022-10-05T22:04:36.228Z,141.43
2022-10-05T22:07:10.537Z,152.10
2022-10-05T22:09:37.169Z,153.05
2022-10-05T22:12:03.865Z,153.38
2022-10-05T22:14:30.483Z,150.30
2022-10-05T22:16:57.109Z,152.80
2022-10-05T22:19:23.763Z,142.63
2022-10-05T22:21:50.509Z,153.30
2022-10-05T22:24:17.152Z,146.80
2022-10-05T22:26:46.580Z,146.30
2022-10-05T22:29:16.025Z,149.38
2022-10-05T22:31:42.995Z,143.88
2022-10-05T22:34:09.575Z,143.75
2022-10-05T22:36:37.292Z,140.88
2022-10-05T22:39:04.217Z,155.85
2022-10-05T22:41:30.828Z,155.27
2022-10-05T22:43:57.464Z,143.07
2022-10-05T22:46:24.128Z,142.55
2022-10-05T22:48:50.794Z,147.48
2022-10-05T22:51:17.415Z,141.02
2022-10-05T22:53:44.004Z,141.98
2022-10-05T22:56:13.475Z,142.18
2022-10-05T22:58:41.223Z,148.23
2022-10-05T23:01:11.154Z,145.98
2022-10-05T23:03:38.261Z,146.65
2022-10-05T23:06:13.240Z,150.93
2022-10-05T23:08:41.030Z,146.50
2022-10-05T23:11:18.949Z,152.90
2022-10-05T23:13:45.622Z,146.63
2022-10-05T23:16:18.364Z,145.07
2022-10-05T23:18:48.674Z,145.57
2022-10-05T23:21:15.690Z,144.80
2022-10-05T23:23:48.988Z,156.60
2022-10-05T23:26:17.516Z,147.35
2022-10-05T23:28:48.040Z,147.10
2022-10-05T23:31:17.542Z,153.77
2022-10-05T23:33:44.459Z,154.27
2022-10-05T23:36:17.089Z,155.73
2022-10-05T23:38:44.493Z,150.02
2022-10-05T23:41:11.481Z,146.45
2022-10-05T23:43:38.173Z,144.20
2022-10-05T23:46:07.182Z,143.50
2022-10-05T23:48:37.949Z,144.10
2022-10-05T23:51:09.861Z,153.70
2022-10-05T23:53:37.023Z,154.35
2022-10-05T23:56:04.512Z,154.32
2022-10-05T23:58:31.554Z,149.52
